< < Back
Terminal Aerodrome Forecast


Current Version              Previous Versions:   1  2  3  4  5  6  7  8  9  

Terminal Aerodrome Forecast

017
FTUS42 KMLB 131720
TAFDAB
TAF
KDAB 131720Z 1318/1418 01011KT P6SM SKC
     FM131900 01011G18KT P6SM SKC
     FM140000 02007KT P6SM SKC
     FM141400 03008KT P6SM SCT035
     FM141700 06010KT P6SM BKN035=

Latest METAR

898
SAUS80 KWBC 140400
MTRDAB
METAR KDAB 140353Z 02010KT 10SM CLR 12/02 A3031 RMK AO2 SLP261 T01170022
$


USA.gov is the U.S. government's official web portal to all federal, state and local government web resources and services.